sensor_id;sensor_type;location;lat;lon;timestamp;P1;durP1;ratioP1;P2;durP2;ratioP2
19816;SDS011;68323;49.394;8.434;2023-07-31T00:00:06;7.33;;;2.23;;
19816;SDS011;68323;49.394;8.434;2023-07-31T00:02:33;4.30;;;2.13;;
19816;SDS011;68323;49.394;8.434;2023-07-31T00:04:59;5.13;;;1.80;;
19816;SDS011;68323;49.394;8.434;2023-07-31T00:07:26;5.83;;;2.00;;
19816;SDS011;68323;49.394;8.434;2023-07-31T00:09:52;7.70;;;2.00;;
19816;SDS011;68323;49.394;8.434;2023-07-31T00:12:18;4.43;;;1.73;;
19816;SDS011;68323;49.394;8.434;2023-07-31T00:14:44;7.13;;;2.00;;
19816;SDS011;68323;49.394;8.434;2023-07-31T00:17:10;5.00;;;1.97;;
19816;SDS011;68323;49.394;8.434;2023-07-31T00:19:36;4.43;;;1.80;;
19816;SDS011;68323;49.394;8.434;2023-07-31T00:22:02;8.07;;;1.97;;
19816;SDS011;68323;49.394;8.434;2023-07-31T00:24:28;3.73;;;2.00;;
19816;SDS011;68323;49.394;8.434;2023-07-31T00:26:53;5.03;;;2.00;;
19816;SDS011;68323;49.394;8.434;2023-07-31T00:29:19;5.93;;;1.90;;
19816;SDS011;68323;49.394;8.434;2023-07-31T00:31:44;4.50;;;2.03;;
19816;SDS011;68323;49.394;8.434;2023-07-31T00:34:09;6.53;;;2.30;;
19816;SDS011;68323;49.394;8.434;2023-07-31T00:36:35;6.70;;;1.90;;
19816;SDS011;68323;49.394;8.434;2023-07-31T00:39:01;6.07;;;2.17;;
19816;SDS011;68323;49.394;8.434;2023-07-31T00:41:26;7.03;;;2.03;;
19816;SDS011;68323;49.394;8.434;2023-07-31T00:43:52;5.70;;;2.03;;
19816;SDS011;68323;49.394;8.434;2023-07-31T00:46:17;9.50;;;2.00;;
19816;SDS011;68323;49.394;8.434;2023-07-31T00:48:43;6.23;;;1.70;;
19816;SDS011;68323;49.394;8.434;2023-07-31T00:51:08;9.20;;;2.40;;
19816;SDS011;68323;49.394;8.434;2023-07-31T00:53:35;5.73;;;1.97;;
19816;SDS011;68323;49.394;8.434;2023-07-31T00:56:01;5.10;;;2.00;;
19816;SDS011;68323;49.394;8.434;2023-07-31T00:58:26;10.63;;;2.30;;
19816;SDS011;68323;49.394;8.434;2023-07-31T01:00:52;5.60;;;1.93;;
19816;SDS011;68323;49.394;8.434;2023-07-31T01:03:18;4.97;;;1.83;;
19816;SDS011;68323;49.394;8.434;2023-07-31T01:05:59;6.93;;;2.00;;
19816;SDS011;68323;49.394;8.434;2023-07-31T01:08:36;6.23;;;1.93;;
19816;SDS011;68323;49.394;8.434;2023-07-31T01:11:48;4.23;;;1.80;;
19816;SDS011;68323;49.394;8.434;2023-07-31T01:13:55;5.93;;;1.80;;
19816;SDS011;68323;49.394;8.434;2023-07-31T01:16:21;7.47;;;2.33;;
19816;SDS011;68323;49.394;8.434;2023-07-31T01:18:47;6.00;;;2.20;;
19816;SDS011;68323;49.394;8.434;2023-07-31T01:26:34;4.77;;;1.80;;
19816;SDS011;68323;49.394;8.434;2023-07-31T01:31:34;8.83;;;2.20;;
19816;SDS011;68323;49.394;8.434;2023-07-31T01:34:01;6.83;;;2.07;;
19816;SDS011;68323;49.394;8.434;2023-07-31T01:36:28;6.03;;;2.10;;
19816;SDS011;68323;49.394;8.434;2023-07-31T01:38:58;7.97;;;2.37;;
19816;SDS011;68323;49.394;8.434;2023-07-31T01:41:25;8.03;;;2.10;;
19816;SDS011;68323;49.394;8.434;2023-07-31T01:43:51;7.07;;;2.20;;
19816;SDS011;68323;49.394;8.434;2023-07-31T01:46:16;6.97;;;2.10;;
19816;SDS011;68323;49.394;8.434;2023-07-31T01:48:42;6.87;;;2.50;;
19816;SDS011;68323;49.394;8.434;2023-07-31T01:51:07;7.63;;;2.50;;
19816;SDS011;68323;49.394;8.434;2023-07-31T01:53:33;6.70;;;2.43;;
19816;SDS011;68323;49.394;8.434;2023-07-31T01:55:58;5.17;;;2.13;;
19816;SDS011;68323;49.394;8.434;2023-07-31T01:58:24;7.00;;;2.60;;
19816;SDS011;68323;49.394;8.434;2023-07-31T02:00:50;9.63;;;2.60;;
19816;SDS011;68323;49.394;8.434;2023-07-31T02:03:15;5.83;;;2.10;;
19816;SDS011;68323;49.394;8.434;2023-07-31T02:05:44;6.17;;;2.43;;
19816;SDS011;68323;49.394;8.434;2023-07-31T02:08:13;5.50;;;2.23;;
19816;SDS011;68323;49.394;8.434;2023-07-31T02:10:39;10.00;;;2.60;;
19816;SDS011;68323;49.394;8.434;2023-07-31T02:13:05;7.30;;;2.27;;
19816;SDS011;68323;49.394;8.434;2023-07-31T02:15:31;6.83;;;1.97;;
19816;SDS011;68323;49.394;8.434;2023-07-31T02:17:56;7.00;;;2.17;;
19816;SDS011;68323;49.394;8.434;2023-07-31T02:20:22;10.77;;;2.70;;
19816;SDS011;68323;49.394;8.434;2023-07-31T02:22:47;4.13;;;2.30;;
19816;SDS011;68323;49.394;8.434;2023-07-31T02:25:13;8.30;;;2.33;;
19816;SDS011;68323;49.394;8.434;2023-07-31T02:27:39;5.77;;;2.27;;
19816;SDS011;68323;49.394;8.434;2023-07-31T02:30:04;5.07;;;2.10;;
19816;SDS011;68323;49.394;8.434;2023-07-31T02:32:30;6.17;;;2.27;;
19816;SDS011;68323;49.394;8.434;2023-07-31T02:34:56;6.17;;;2.37;;
19816;SDS011;68323;49.394;8.434;2023-07-31T02:37:21;7.53;;;2.10;;
19816;SDS011;68323;49.394;8.434;2023-07-31T02:39:47;6.37;;;2.30;;
19816;SDS011;68323;49.394;8.434;2023-07-31T02:42:13;7.27;;;2.30;;
19816;SDS011;68323;49.394;8.434;2023-07-31T02:44:39;8.57;;;2.50;;
19816;SDS011;68323;49.394;8.434;2023-07-31T02:47:05;7.77;;;2.30;;
19816;SDS011;68323;49.394;8.434;2023-07-31T02:49:30;6.93;;;2.13;;
19816;SDS011;68323;49.394;8.434;2023-07-31T02:51:56;5.20;;;2.33;;
19816;SDS011;68323;49.394;8.434;2023-07-31T02:54:21;4.70;;;2.00;;
19816;SDS011;68323;49.394;8.434;2023-07-31T02:56:47;7.40;;;2.30;;
19816;SDS011;68323;49.394;8.434;2023-07-31T02:59:13;4.60;;;2.37;;
19816;SDS011;68323;49.394;8.434;2023-07-31T03:01:38;7.80;;;2.40;;
19816;SDS011;68323;49.394;8.434;2023-07-31T03:04:04;8.93;;;2.47;;
19816;SDS011;68323;49.394;8.434;2023-07-31T03:06:30;8.50;;;2.20;;
19816;SDS011;68323;49.394;8.434;2023-07-31T03:08:55;6.20;;;2.50;;
19816;SDS011;68323;49.394;8.434;2023-07-31T03:11:21;6.00;;;2.37;;
19816;SDS011;68323;49.394;8.434;2023-07-31T03:13:46;5.27;;;2.30;;
19816;SDS011;68323;49.394;8.434;2023-07-31T03:16:12;5.37;;;2.27;;
19816;SDS011;68323;49.394;8.434;2023-07-31T03:18:37;7.33;;;2.20;;
19816;SDS011;68323;49.394;8.434;2023-07-31T03:21:03;8.10;;;2.53;;
19816;SDS011;68323;49.394;8.434;2023-07-31T03:23:29;7.03;;;2.40;;
19816;SDS011;68323;49.394;8.434;2023-07-31T03:25:59;6.93;;;2.37;;
19816;SDS011;68323;49.394;8.434;2023-07-31T03:28:25;6.13;;;2.50;;
19816;SDS011;68323;49.394;8.434;2023-07-31T03:30:51;5.73;;;2.33;;
19816;SDS011;68323;49.394;8.434;2023-07-31T03:33:17;7.60;;;2.37;;
19816;SDS011;68323;49.394;8.434;2023-07-31T03:35:43;7.87;;;2.40;;
19816;SDS011;68323;49.394;8.434;2023-07-31T03:38:08;7.83;;;2.60;;
19816;SDS011;68323;49.394;8.434;2023-07-31T03:40:34;5.67;;;2.60;;
19816;SDS011;68323;49.394;8.434;2023-07-31T03:42:59;7.53;;;2.40;;
19816;SDS011;68323;49.394;8.434;2023-07-31T03:45:25;4.73;;;2.50;;
19816;SDS011;68323;49.394;8.434;2023-07-31T03:47:50;7.77;;;2.43;;
19816;SDS011;68323;49.394;8.434;2023-07-31T03:50:16;10.77;;;2.73;;
19816;SDS011;68323;49.394;8.434;2023-07-31T03:52:41;7.00;;;2.53;;
19816;SDS011;68323;49.394;8.434;2023-07-31T03:55:07;7.60;;;2.90;;
19816;SDS011;68323;49.394;8.434;2023-07-31T03:57:32;7.10;;;2.50;;
19816;SDS011;68323;49.394;8.434;2023-07-31T03:59:58;8.37;;;2.50;;
19816;SDS011;68323;49.394;8.434;2023-07-31T04:02:24;6.33;;;2.43;;
19816;SDS011;68323;49.394;8.434;2023-07-31T04:04:49;8.27;;;2.70;;
19816;SDS011;68323;49.394;8.434;2023-07-31T04:07:15;11.70;;;2.63;;
19816;SDS011;68323;49.394;8.434;2023-07-31T04:09:40;7.27;;;2.70;;
19816;SDS011;68323;49.394;8.434;2023-07-31T04:12:06;8.73;;;2.80;;
19816;SDS011;68323;49.394;8.434;2023-07-31T04:14:32;7.03;;;2.47;;
19816;SDS011;68323;49.394;8.434;2023-07-31T04:16:57;8.33;;;2.50;;
19816;SDS011;68323;49.394;8.434;2023-07-31T04:19:23;6.03;;;2.50;;
19816;SDS011;68323;49.394;8.434;2023-07-31T04:21:49;5.80;;;2.43;;
19816;SDS011;68323;49.394;8.434;2023-07-31T04:24:14;8.37;;;2.43;;
19816;SDS011;68323;49.394;8.434;2023-07-31T04:26:40;7.40;;;2.80;;
19816;SDS011;68323;49.394;8.434;2023-07-31T04:29:05;7.83;;;2.60;;
19816;SDS011;68323;49.394;8.434;2023-07-31T04:31:31;5.93;;;2.40;;
19816;SDS011;68323;49.394;8.434;2023-07-31T04:33:56;6.13;;;2.60;;
19816;SDS011;68323;49.394;8.434;2023-07-31T04:36:22;6.33;;;2.97;;
19816;SDS011;68323;49.394;8.434;2023-07-31T04:38:47;5.63;;;2.57;;
19816;SDS011;68323;49.394;8.434;2023-07-31T04:41:13;6.80;;;2.37;;
19816;SDS011;68323;49.394;8.434;2023-07-31T04:43:38;9.13;;;2.77;;
19816;SDS011;68323;49.394;8.434;2023-07-31T04:46:04;8.37;;;2.93;;
19816;SDS011;68323;49.394;8.434;2023-07-31T04:48:30;9.10;;;2.73;;
19816;SDS011;68323;49.394;8.434;2023-07-31T04:50:56;5.27;;;2.50;;
19816;SDS011;68323;49.394;8.434;2023-07-31T04:53:21;10.13;;;2.90;;
19816;SDS011;68323;49.394;8.434;2023-07-31T04:55:47;6.03;;;2.27;;
19816;SDS011;68323;49.394;8.434;2023-07-31T04:58:12;8.10;;;2.70;;
19816;SDS011;68323;49.394;8.434;2023-07-31T05:00:38;7.07;;;2.47;;
19816;SDS011;68323;49.394;8.434;2023-07-31T05:03:03;5.70;;;2.43;;
19816;SDS011;68323;49.394;8.434;2023-07-31T05:05:29;7.80;;;2.67;;
19816;SDS011;68323;49.394;8.434;2023-07-31T05:07:55;6.60;;;2.50;;
19816;SDS011;68323;49.394;8.434;2023-07-31T05:10:20;5.87;;;2.50;;
19816;SDS011;68323;49.394;8.434;2023-07-31T05:12:46;8.80;;;2.50;;
19816;SDS011;68323;49.394;8.434;2023-07-31T05:15:12;9.40;;;2.70;;
19816;SDS011;68323;49.394;8.434;2023-07-31T05:17:37;6.33;;;2.53;;
19816;SDS011;68323;49.394;8.434;2023-07-31T05:20:03;7.77;;;2.53;;
19816;SDS011;68323;49.394;8.434;2023-07-31T05:22:28;4.87;;;2.60;;
19816;SDS011;68323;49.394;8.434;2023-07-31T05:24:54;8.43;;;2.40;;
19816;SDS011;68323;49.394;8.434;2023-07-31T05:27:20;5.87;;;2.50;;
19816;SDS011;68323;49.394;8.434;2023-07-31T05:29:45;9.17;;;2.63;;
19816;SDS011;68323;49.394;8.434;2023-07-31T05:32:11;8.03;;;2.17;;
19816;SDS011;68323;49.394;8.434;2023-07-31T05:34:37;8.90;;;2.67;;
19816;SDS011;68323;49.394;8.434;2023-07-31T05:37:02;7.83;;;2.60;;
19816;SDS011;68323;49.394;8.434;2023-07-31T05:39:28;7.53;;;2.50;;
19816;SDS011;68323;49.394;8.434;2023-07-31T05:41:54;8.87;;;2.63;;
19816;SDS011;68323;49.394;8.434;2023-07-31T05:44:19;7.57;;;2.50;;
19816;SDS011;68323;49.394;8.434;2023-07-31T05:46:45;7.70;;;2.40;;
19816;SDS011;68323;49.394;8.434;2023-07-31T05:49:10;7.97;;;2.83;;
19816;SDS011;68323;49.394;8.434;2023-07-31T05:51:36;4.67;;;2.37;;
19816;SDS011;68323;49.394;8.434;2023-07-31T05:54:01;8.63;;;2.57;;
19816;SDS011;68323;49.394;8.434;2023-07-31T05:56:27;8.57;;;2.40;;
19816;SDS011;68323;49.394;8.434;2023-07-31T05:58:52;7.73;;;2.70;;
19816;SDS011;68323;49.394;8.434;2023-07-31T06:01:18;6.27;;;2.50;;
19816;SDS011;68323;49.394;8.434;2023-07-31T06:03:44;5.27;;;2.50;;
19816;SDS011;68323;49.394;8.434;2023-07-31T06:06:09;9.87;;;2.77;;
19816;SDS011;68323;49.394;8.434;2023-07-31T06:08:35;6.40;;;3.10;;
19816;SDS011;68323;49.394;8.434;2023-07-31T06:11:01;8.57;;;2.70;;
19816;SDS011;68323;49.394;8.434;2023-07-31T06:13:27;5.83;;;2.40;;
19816;SDS011;68323;49.394;8.434;2023-07-31T06:15:52;8.13;;;2.70;;
19816;SDS011;68323;49.394;8.434;2023-07-31T06:18:18;7.57;;;2.77;;
19816;SDS011;68323;49.394;8.434;2023-07-31T06:20:43;6.77;;;2.60;;
19816;SDS011;68323;49.394;8.434;2023-07-31T06:23:09;8.67;;;2.60;;
19816;SDS011;68323;49.394;8.434;2023-07-31T06:25:34;8.10;;;2.57;;
19816;SDS011;68323;49.394;8.434;2023-07-31T06:28:00;6.57;;;2.73;;
19816;SDS011;68323;49.394;8.434;2023-07-31T06:30:25;6.87;;;2.60;;
19816;SDS011;68323;49.394;8.434;2023-07-31T06:32:51;4.77;;;2.40;;
19816;SDS011;68323;49.394;8.434;2023-07-31T06:35:17;12.20;;;2.87;;
19816;SDS011;68323;49.394;8.434;2023-07-31T06:37:42;5.80;;;2.37;;
19816;SDS011;68323;49.394;8.434;2023-07-31T06:40:09;6.53;;;2.40;;
19816;SDS011;68323;49.394;8.434;2023-07-31T06:42:35;6.53;;;2.83;;
19816;SDS011;68323;49.394;8.434;2023-07-31T06:45:04;6.00;;;2.92;;
19816;SDS011;68323;49.394;8.434;2023-07-31T06:47:30;6.87;;;2.60;;
19816;SDS011;68323;49.394;8.434;2023-07-31T06:49:57;6.63;;;2.43;;
19816;SDS011;68323;49.394;8.434;2023-07-31T06:52:22;7.80;;;2.60;;
19816;SDS011;68323;49.394;8.434;2023-07-31T06:55:04;6.30;;;2.80;;
19816;SDS011;68323;49.394;8.434;2023-07-31T06:57:43;7.90;;;2.50;;
19816;SDS011;68323;49.394;8.434;2023-07-31T07:00:09;8.47;;;2.60;;
19816;SDS011;68323;49.394;8.434;2023-07-31T07:02:35;9.00;;;2.50;;
19816;SDS011;68323;49.394;8.434;2023-07-31T07:05:00;5.87;;;2.43;;
19816;SDS011;68323;49.394;8.434;2023-07-31T07:07:26;6.97;;;2.63;;
19816;SDS011;68323;49.394;8.434;2023-07-31T07:09:52;9.43;;;2.75;;
19816;SDS011;68323;49.394;8.434;2023-07-31T07:12:18;6.73;;;2.27;;
19816;SDS011;68323;49.394;8.434;2023-07-31T07:14:43;5.95;;;2.45;;
19816;SDS011;68323;49.394;8.434;2023-07-31T07:17:11;11.63;;;2.75;;
19816;SDS011;68323;49.394;8.434;2023-07-31T07:19:40;13.00;;;2.50;;
19816;SDS011;68323;49.394;8.434;2023-07-31T07:22:05;7.72;;;2.22;;
19816;SDS011;68323;49.394;8.434;2023-07-31T07:24:31;8.27;;;2.22;;
19816;SDS011;68323;49.394;8.434;2023-07-31T07:26:56;6.45;;;2.45;;
19816;SDS011;68323;49.394;8.434;2023-07-31T07:29:22;7.80;;;2.63;;
19816;SDS011;68323;49.394;8.434;2023-07-31T07:31:47;5.28;;;2.65;;
19816;SDS011;68323;49.394;8.434;2023-07-31T07:34:13;8.75;;;2.67;;
19816;SDS011;68323;49.394;8.434;2023-07-31T07:36:38;6.97;;;2.60;;
19816;SDS011;68323;49.394;8.434;2023-07-31T07:39:04;6.97;;;2.85;;
19816;SDS011;68323;49.394;8.434;2023-07-31T07:41:30;6.95;;;2.55;;
19816;SDS011;68323;49.394;8.434;2023-07-31T07:43:55;4.95;;;2.22;;
19816;SDS011;68323;49.394;8.434;2023-07-31T07:46:21;6.03;;;2.40;;
19816;SDS011;68323;49.394;8.434;2023-07-31T07:48:46;10.13;;;2.50;;
19816;SDS011;68323;49.394;8.434;2023-07-31T07:51:12;7.20;;;2.38;;
19816;SDS011;68323;49.394;8.434;2023-07-31T07:53:37;3.72;;;2.22;;
19816;SDS011;68323;49.394;8.434;2023-07-31T07:56:03;4.28;;;2.38;;
19816;SDS011;68323;49.394;8.434;2023-07-31T07:58:28;6.18;;;2.45;;
19816;SDS011;68323;49.394;8.434;2023-07-31T08:00:54;7.03;;;2.70;;
19816;SDS011;68323;49.394;8.434;2023-07-31T08:03:20;6.35;;;2.63;;
19816;SDS011;68323;49.394;8.434;2023-07-31T08:05:45;5.15;;;2.47;;
19816;SDS011;68323;49.394;8.434;2023-07-31T08:08:17;5.38;;;2.38;;
19816;SDS011;68323;49.394;8.434;2023-07-31T08:10:43;4.70;;;2.20;;
19816;SDS011;68323;49.394;8.434;2023-07-31T08:13:11;7.03;;;2.58;;
19816;SDS011;68323;49.394;8.434;2023-07-31T08:15:37;5.75;;;2.83;;
19816;SDS011;68323;49.394;8.434;2023-07-31T08:18:05;6.45;;;2.33;;
19816;SDS011;68323;49.394;8.434;2023-07-31T08:20:31;6.55;;;2.50;;
19816;SDS011;68323;49.394;8.434;2023-07-31T08:22:56;5.00;;;2.38;;
19816;SDS011;68323;49.394;8.434;2023-07-31T08:25:23;7.43;;;2.53;;
19816;SDS011;68323;49.394;8.434;2023-07-31T08:27:48;8.48;;;2.40;;
19816;SDS011;68323;49.394;8.434;2023-07-31T08:30:14;6.63;;;2.47;;
19816;SDS011;68323;49.394;8.434;2023-07-31T08:32:39;6.55;;;2.60;;
19816;SDS011;68323;49.394;8.434;2023-07-31T08:35:05;6.65;;;2.88;;
19816;SDS011;68323;49.394;8.434;2023-07-31T08:37:30;7.22;;;2.70;;
19816;SDS011;68323;49.394;8.434;2023-07-31T08:39:56;7.40;;;2.70;;
19816;SDS011;68323;49.394;8.434;2023-07-31T08:42:23;8.73;;;2.70;;
19816;SDS011;68323;49.394;8.434;2023-07-31T08:44:50;5.88;;;2.55;;
19816;SDS011;68323;49.394;8.434;2023-07-31T08:47:15;4.85;;;2.67;;
19816;SDS011;68323;49.394;8.434;2023-07-31T08:49:42;7.30;;;2.72;;
19816;SDS011;68323;49.394;8.434;2023-07-31T08:52:08;6.90;;;2.85;;
19816;SDS011;68323;49.394;8.434;2023-07-31T08:54:35;7.60;;;2.80;;
19816;SDS011;68323;49.394;8.434;2023-07-31T08:57:00;7.75;;;2.50;;
19816;SDS011;68323;49.394;8.434;2023-07-31T08:59:27;7.65;;;2.90;;
19816;SDS011;68323;49.394;8.434;2023-07-31T09:01:55;9.13;;;3.38;;
19816;SDS011;68323;49.394;8.434;2023-07-31T09:04:27;5.20;;;2.72;;
19816;SDS011;68323;49.394;8.434;2023-07-31T09:06:56;6.72;;;2.72;;
19816;SDS011;68323;49.394;8.434;2023-07-31T09:09:24;7.15;;;2.80;;
19816;SDS011;68323;49.394;8.434;2023-07-31T09:11:50;7.47;;;2.70;;
19816;SDS011;68323;49.394;8.434;2023-07-31T09:14:16;8.30;;;3.00;;
19816;SDS011;68323;49.394;8.434;2023-07-31T09:16:55;6.25;;;2.58;;
19816;SDS011;68323;49.394;8.434;2023-07-31T09:19:25;5.45;;;2.60;;
19816;SDS011;68323;49.394;8.434;2023-07-31T09:21:52;6.82;;;2.95;;
19816;SDS011;68323;49.394;8.434;2023-07-31T09:24:31;6.05;;;2.58;;
19816;SDS011;68323;49.394;8.434;2023-07-31T09:26:58;7.00;;;2.72;;
19816;SDS011;68323;49.394;8.434;2023-07-31T09:29:25;4.28;;;2.50;;
19816;SDS011;68323;49.394;8.434;2023-07-31T09:31:52;8.60;;;2.85;;
19816;SDS011;68323;49.394;8.434;2023-07-31T09:34:19;7.65;;;2.97;;
19816;SDS011;68323;49.394;8.434;2023-07-31T09:36:49;6.60;;;2.97;;
19816;SDS011;68323;49.394;8.434;2023-07-31T09:39:15;6.70;;;3.00;;
19816;SDS011;68323;49.394;8.434;2023-07-31T09:41:43;5.85;;;2.50;;
19816;SDS011;68323;49.394;8.434;2023-07-31T09:44:11;8.18;;;3.13;;
19816;SDS011;68323;49.394;8.434;2023-07-31T09:46:36;5.47;;;3.42;;
19816;SDS011;68323;49.394;8.434;2023-07-31T09:49:03;10.02;;;2.92;;
19816;SDS011;68323;49.394;8.434;2023-07-31T09:51:34;6.18;;;2.85;;
19816;SDS011;68323;49.394;8.434;2023-07-31T09:54:03;8.43;;;3.00;;
19816;SDS011;68323;49.394;8.434;2023-07-31T09:56:34;6.57;;;3.05;;
19816;SDS011;68323;49.394;8.434;2023-07-31T09:59:01;8.07;;;3.13;;
19816;SDS011;68323;49.394;8.434;2023-07-31T10:01:29;6.40;;;3.05;;
19816;SDS011;68323;49.394;8.434;2023-07-31T10:03:54;7.97;;;3.15;;
19816;SDS011;68323;49.394;8.434;2023-07-31T10:06:21;9.00;;;2.83;;
19816;SDS011;68323;49.394;8.434;2023-07-31T10:08:47;8.02;;;3.50;;
19816;SDS011;68323;49.394;8.434;2023-07-31T10:11:16;11.35;;;3.95;;
19816;SDS011;68323;49.394;8.434;2023-07-31T10:13:42;7.03;;;3.17;;
19816;SDS011;68323;49.394;8.434;2023-07-31T10:16:08;8.30;;;3.47;;
19816;SDS011;68323;49.394;8.434;2023-07-31T10:18:35;7.18;;;3.22;;
19816;SDS011;68323;49.394;8.434;2023-07-31T10:21:02;8.10;;;3.78;;
19816;SDS011;68323;49.394;8.434;2023-07-31T10:23:27;7.25;;;3.25;;
19816;SDS011;68323;49.394;8.434;2023-07-31T10:25:54;6.63;;;3.45;;
19816;SDS011;68323;49.394;8.434;2023-07-31T10:28:21;15.02;;;3.90;;
19816;SDS011;68323;49.394;8.434;2023-07-31T10:30:49;8.48;;;4.13;;
19816;SDS011;68323;49.394;8.434;2023-07-31T10:33:16;11.52;;;3.40;;
19816;SDS011;68323;49.394;8.434;2023-07-31T10:35:44;9.13;;;3.17;;
19816;SDS011;68323;49.394;8.434;2023-07-31T10:38:12;5.32;;;2.75;;
19816;SDS011;68323;49.394;8.434;2023-07-31T10:40:38;7.57;;;3.20;;
19816;SDS011;68323;49.394;8.434;2023-07-31T10:43:04;7.53;;;3.03;;
19816;SDS011;68323;49.394;8.434;2023-07-31T10:45:34;8.82;;;3.05;;
19816;SDS011;68323;49.394;8.434;2023-07-31T10:48:06;6.10;;;2.78;;
19816;SDS011;68323;49.394;8.434;2023-07-31T10:50:38;7.95;;;3.50;;
19816;SDS011;68323;49.394;8.434;2023-07-31T10:53:10;6.60;;;2.92;;
19816;SDS011;68323;49.394;8.434;2023-07-31T10:55:51;7.07;;;3.35;;
19816;SDS011;68323;49.394;8.434;2023-07-31T10:58:18;7.38;;;3.20;;
19816;SDS011;68323;49.394;8.434;2023-07-31T11:00:46;7.13;;;3.30;;
19816;SDS011;68323;49.394;8.434;2023-07-31T11:03:15;7.72;;;3.28;;
19816;SDS011;68323;49.394;8.434;2023-07-31T11:05:52;6.95;;;3.15;;
19816;SDS011;68323;49.394;8.434;2023-07-31T11:08:31;8.77;;;3.47;;
19816;SDS011;68323;49.394;8.434;2023-07-31T11:13:26;8.63;;;2.75;;
19816;SDS011;68323;49.394;8.434;2023-07-31T11:15:52;9.02;;;3.25;;
19816;SDS011;68323;49.394;8.434;2023-07-31T11:18:17;7.40;;;3.40;;
19816;SDS011;68323;49.394;8.434;2023-07-31T11:20:43;5.93;;;2.70;;
19816;SDS011;68323;49.394;8.434;2023-07-31T11:23:09;7.25;;;3.00;;
19816;SDS011;68323;49.394;8.434;2023-07-31T11:25:36;7.18;;;3.00;;
19816;SDS011;68323;49.394;8.434;2023-07-31T11:28:04;8.30;;;2.97;;
19816;SDS011;68323;49.394;8.434;2023-07-31T11:30:31;7.75;;;2.95;;
19816;SDS011;68323;49.394;8.434;2023-07-31T11:32:57;6.90;;;2.80;;
19816;SDS011;68323;49.394;8.434;2023-07-31T11:35:22;5.97;;;2.78;;
19816;SDS011;68323;49.394;8.434;2023-07-31T11:37:48;8.05;;;2.97;;
19816;SDS011;68323;49.394;8.434;2023-07-31T11:40:14;6.28;;;2.63;;
19816;SDS011;68323;49.394;8.434;2023-07-31T11:42:40;5.30;;;2.53;;
19816;SDS011;68323;49.394;8.434;2023-07-31T11:45:06;8.57;;;3.08;;
19816;SDS011;68323;49.394;8.434;2023-07-31T11:47:33;5.63;;;2.78;;
19816;SDS011;68323;49.394;8.434;2023-07-31T11:50:01;9.43;;;3.33;;
19816;SDS011;68323;49.394;8.434;2023-07-31T11:52:28;6.38;;;3.20;;
19816;SDS011;68323;49.394;8.434;2023-07-31T11:54:56;6.20;;;3.20;;
19816;SDS011;68323;49.394;8.434;2023-07-31T11:57:23;8.95;;;3.50;;
19816;SDS011;68323;49.394;8.434;2023-07-31T11:59:50;5.43;;;2.70;;
19816;SDS011;68323;49.394;8.434;2023-07-31T12:02:17;7.75;;;3.45;;
19816;SDS011;68323;49.394;8.434;2023-07-31T12:04:44;6.25;;;3.08;;
19816;SDS011;68323;49.394;8.434;2023-07-31T12:07:11;5.35;;;3.03;;
19816;SDS011;68323;49.394;8.434;2023-07-31T12:09:37;6.32;;;3.13;;
19816;SDS011;68323;49.394;8.434;2023-07-31T12:12:03;8.02;;;3.33;;
19816;SDS011;68323;49.394;8.434;2023-07-31T12:14:33;6.40;;;3.10;;
19816;SDS011;68323;49.394;8.434;2023-07-31T12:17:00;7.75;;;3.17;;
19816;SDS011;68323;49.394;8.434;2023-07-31T12:19:29;8.85;;;3.38;;
19816;SDS011;68323;49.394;8.434;2023-07-31T12:21:55;5.40;;;3.03;;
19816;SDS011;68323;49.394;8.434;2023-07-31T12:24:21;5.50;;;2.90;;
19816;SDS011;68323;49.394;8.434;2023-07-31T12:26:47;6.88;;;3.13;;
19816;SDS011;68323;49.394;8.434;2023-07-31T12:29:13;7.70;;;3.10;;
19816;SDS011;68323;49.394;8.434;2023-07-31T12:31:40;8.23;;;2.78;;
19816;SDS011;68323;49.394;8.434;2023-07-31T12:34:14;9.70;;;3.33;;
19816;SDS011;68323;49.394;8.434;2023-07-31T12:36:46;5.75;;;2.83;;
19816;SDS011;68323;49.394;8.434;2023-07-31T12:39:14;4.97;;;2.97;;
19816;SDS011;68323;49.394;8.434;2023-07-31T12:41:39;8.50;;;3.30;;
19816;SDS011;68323;49.394;8.434;2023-07-31T12:44:05;7.63;;;2.92;;
19816;SDS011;68323;49.394;8.434;2023-07-31T12:46:31;6.55;;;3.05;;
19816;SDS011;68323;49.394;8.434;2023-07-31T12:48:56;6.05;;;3.00;;
19816;SDS011;68323;49.394;8.434;2023-07-31T12:51:22;6.00;;;2.70;;
19816;SDS011;68323;49.394;8.434;2023-07-31T12:53:47;5.28;;;2.60;;
19816;SDS011;68323;49.394;8.434;2023-07-31T12:56:13;4.70;;;2.67;;
19816;SDS011;68323;49.394;8.434;2023-07-31T12:58:38;4.78;;;2.85;;
19816;SDS011;68323;49.394;8.434;2023-07-31T13:01:04;6.82;;;3.03;;
19816;SDS011;68323;49.394;8.434;2023-07-31T13:03:30;7.20;;;2.67;;
19816;SDS011;68323;49.394;8.434;2023-07-31T13:05:56;5.50;;;2.80;;
19816;SDS011;68323;49.394;8.434;2023-07-31T13:08:21;5.72;;;2.70;;
19816;SDS011;68323;49.394;8.434;2023-07-31T13:10:47;5.43;;;2.70;;
19816;SDS011;68323;49.394;8.434;2023-07-31T13:13:13;5.57;;;2.55;;
19816;SDS011;68323;49.394;8.434;2023-07-31T13:15:38;7.20;;;3.00;;
19816;SDS011;68323;49.394;8.434;2023-07-31T13:18:04;5.60;;;2.92;;
19816;SDS011;68323;49.394;8.434;2023-07-31T13:20:29;4.97;;;2.53;;
19816;SDS011;68323;49.394;8.434;2023-07-31T13:22:55;13.63;;;3.78;;
19816;SDS011;68323;49.394;8.434;2023-07-31T13:25:20;5.85;;;2.90;;
19816;SDS011;68323;49.394;8.434;2023-07-31T13:27:46;6.95;;;2.97;;
19816;SDS011;68323;49.394;8.434;2023-07-31T13:30:11;5.82;;;3.33;;
19816;SDS011;68323;49.394;8.434;2023-07-31T13:32:37;5.75;;;2.92;;
19816;SDS011;68323;49.394;8.434;2023-07-31T13:35:06;5.13;;;2.83;;
19816;SDS011;68323;49.394;8.434;2023-07-31T13:37:32;6.57;;;3.17;;
19816;SDS011;68323;49.394;8.434;2023-07-31T13:39:57;7.80;;;2.90;;
19816;SDS011;68323;49.394;8.434;2023-07-31T13:42:23;5.78;;;2.75;;
19816;SDS011;68323;49.394;8.434;2023-07-31T13:44:48;5.45;;;2.95;;
19816;SDS011;68323;49.394;8.434;2023-07-31T13:47:14;6.03;;;3.10;;
19816;SDS011;68323;49.394;8.434;2023-07-31T13:49:40;7.28;;;3.03;;
19816;SDS011;68323;49.394;8.434;2023-07-31T13:52:08;5.05;;;3.00;;
19816;SDS011;68323;49.394;8.434;2023-07-31T13:54:34;6.20;;;2.88;;
19816;SDS011;68323;49.394;8.434;2023-07-31T13:56:59;5.20;;;2.75;;
19816;SDS011;68323;49.394;8.434;2023-07-31T13:59:25;8.00;;;3.08;;
19816;SDS011;68323;49.394;8.434;2023-07-31T14:01:50;6.63;;;3.20;;
19816;SDS011;68323;49.394;8.434;2023-07-31T14:04:16;5.53;;;2.88;;
19816;SDS011;68323;49.394;8.434;2023-07-31T14:06:42;9.52;;;2.95;;
19816;SDS011;68323;49.394;8.434;2023-07-31T14:09:08;6.75;;;2.90;;
19816;SDS011;68323;49.394;8.434;2023-07-31T14:11:33;6.38;;;3.10;;
19816;SDS011;68323;49.394;8.434;2023-07-31T14:13:59;7.60;;;3.05;;
19816;SDS011;68323;49.394;8.434;2023-07-31T14:16:26;6.28;;;3.03;;
19816;SDS011;68323;49.394;8.434;2023-07-31T14:18:53;7.72;;;3.13;;
19816;SDS011;68323;49.394;8.434;2023-07-31T14:21:18;5.97;;;3.10;;
19816;SDS011;68323;49.394;8.434;2023-07-31T14:23:44;6.15;;;3.15;;
19816;SDS011;68323;49.394;8.434;2023-07-31T14:26:10;8.25;;;2.85;;
19816;SDS011;68323;49.394;8.434;2023-07-31T14:28:36;6.55;;;3.20;;
19816;SDS011;68323;49.394;8.434;2023-07-31T14:31:01;7.90;;;3.20;;
19816;SDS011;68323;49.394;8.434;2023-07-31T14:33:27;6.32;;;2.83;;
19816;SDS011;68323;49.394;8.434;2023-07-31T14:35:53;4.78;;;2.83;;
19816;SDS011;68323;49.394;8.434;2023-07-31T14:38:19;5.20;;;2.83;;
19816;SDS011;68323;49.394;8.434;2023-07-31T14:40:44;6.68;;;3.08;;
19816;SDS011;68323;49.394;8.434;2023-07-31T14:43:10;8.77;;;3.13;;
19816;SDS011;68323;49.394;8.434;2023-07-31T14:45:35;9.73;;;3.08;;
19816;SDS011;68323;49.394;8.434;2023-07-31T14:48:01;11.38;;;2.90;;
19816;SDS011;68323;49.394;8.434;2023-07-31T14:50:27;6.13;;;2.90;;
19816;SDS011;68323;49.394;8.434;2023-07-31T14:52:53;5.53;;;2.80;;